createdAt,value
2023-03-29T00:00:34.159Z,7.40
2023-03-29T00:01:35.910Z,7.70
2023-03-29T00:02:34.238Z,7.40
2023-03-29T00:03:34.230Z,7.40
2023-03-29T00:04:34.312Z,7.10
2023-03-29T00:05:34.108Z,7.80
2023-03-29T00:06:34.078Z,7.70
2023-03-29T00:07:34.080Z,7.20
2023-03-29T00:08:34.098Z,7.80
2023-03-29T00:09:34.055Z,7.20
2023-03-29T00:10:34.067Z,7.30
2023-03-29T00:11:34.031Z,7.00
2023-03-29T00:12:34.016Z,7.30
2023-03-29T00:13:34.005Z,7.60
2023-03-29T00:14:33.995Z,7.50
2023-03-29T00:15:33.990Z,7.20
2023-03-29T00:16:34.040Z,7.30
2023-03-29T00:17:33.984Z,7.20
2023-03-29T00:18:33.946Z,7.10
2023-03-29T00:19:33.950Z,6.80
2023-03-29T00:20:33.921Z,7.20
2023-03-29T00:21:33.921Z,6.80
2023-03-29T00:22:33.944Z,7.50
2023-03-29T00:23:33.915Z,6.90
2023-03-29T00:24:33.899Z,6.60
2023-03-29T00:25:33.905Z,7.10
2023-03-29T00:26:33.879Z,6.70
2023-03-29T00:27:33.911Z,7.10
2023-03-29T00:28:33.893Z,7.20
2023-03-29T00:29:33.834Z,7.00
2023-03-29T00:30:33.819Z,7.00
2023-03-29T00:31:33.882Z,6.80
2023-03-29T00:32:33.821Z,7.20
2023-03-29T00:33:33.806Z,6.90
2023-03-29T00:34:33.800Z,6.70
2023-03-29T00:35:33.803Z,7.30
2023-03-29T00:36:33.780Z,6.90
2023-03-29T00:37:33.753Z,6.30
2023-03-29T00:38:33.723Z,6.40
2023-03-29T00:39:33.721Z,6.00
2023-03-29T00:40:33.747Z,7.00
2023-03-29T00:41:33.692Z,6.60
2023-03-29T00:42:33.678Z,6.70
2023-03-29T00:43:33.673Z,6.90
2023-03-29T00:44:33.657Z,6.40
2023-03-29T00:45:33.677Z,6.40
2023-03-29T00:46:33.662Z,6.80
2023-03-29T00:47:33.699Z,6.60
2023-03-29T00:48:33.615Z,6.90
2023-03-29T00:49:33.600Z,6.30
2023-03-29T00:50:33.605Z,6.40
2023-03-29T00:51:33.988Z,6.60
2023-03-29T00:52:33.568Z,6.30
2023-03-29T00:53:33.572Z,6.70
2023-03-29T00:54:33.548Z,6.40
2023-03-29T00:55:33.555Z,6.30
2023-03-29T00:56:33.536Z,6.10
2023-03-29T00:57:33.550Z,6.10
2023-03-29T00:58:33.518Z,6.10
2023-03-29T00:59:33.513Z,6.50
2023-03-29T01:00:33.491Z,6.10
2023-03-29T01:01:33.478Z,5.90
2023-03-29T01:02:33.588Z,6.30
2023-03-29T01:03:33.520Z,6.30
2023-03-29T01:04:33.434Z,6.00
2023-03-29T01:05:33.420Z,5.80
2023-03-29T01:06:33.431Z,5.60
2023-03-29T01:07:33.393Z,5.90
2023-03-29T01:08:33.440Z,5.90
2023-03-29T01:09:33.378Z,5.70
2023-03-29T01:10:33.376Z,5.30
2023-03-29T01:11:33.356Z,5.60
2023-03-29T01:12:33.352Z,5.60
2023-03-29T01:13:33.336Z,5.40
2023-03-29T01:14:33.351Z,5.30
2023-03-29T01:15:33.309Z,5.50
2023-03-29T01:16:33.357Z,5.10
2023-03-29T01:17:33.340Z,5.70
2023-03-29T01:18:33.280Z,5.70
2023-03-29T01:19:33.266Z,5.70
2023-03-29T01:20:33.293Z,4.80
2023-03-29T01:21:33.246Z,5.10
2023-03-29T01:22:33.231Z,5.70
2023-03-29T01:23:33.214Z,5.60
2023-03-29T01:24:33.209Z,5.60
2023-03-29T01:25:33.194Z,5.70
2023-03-29T01:26:33.232Z,5.60
2023-03-29T01:27:33.177Z,5.20
2023-03-29T01:28:33.162Z,5.10
2023-03-29T01:29:33.159Z,5.30
2023-03-29T01:30:33.143Z,5.20
2023-03-29T01:31:33.175Z,4.90
2023-03-29T01:32:33.221Z,5.30
2023-03-29T01:33:33.110Z,5.40
2023-03-29T01:34:33.096Z,5.50
2023-03-29T01:35:33.136Z,5.60
2023-03-29T01:36:33.079Z,5.40
2023-03-29T01:37:33.075Z,5.10
2023-03-29T01:38:33.101Z,5.00
2023-03-29T01:39:33.043Z,5.10
2023-03-29T01:40:33.052Z,4.70
2023-03-29T01:41:33.031Z,4.70
2023-03-29T01:42:33.011Z,5.10
2023-03-29T01:43:32.990Z,5.40
2023-03-29T01:44:33.018Z,5.80
2023-03-29T01:45:32.966Z,5.30
2023-03-29T01:46:32.992Z,5.60
2023-03-29T01:47:32.968Z,5.70
2023-03-29T01:48:32.940Z,5.00
2023-03-29T01:49:32.939Z,5.20
2023-03-29T01:50:32.939Z,5.30
2023-03-29T01:51:32.900Z,5.00
2023-03-29T01:52:32.898Z,4.70
2023-03-29T01:53:32.876Z,5.20
2023-03-29T01:54:32.881Z,5.00
2023-03-29T01:55:32.861Z,5.30
2023-03-29T01:56:32.871Z,5.50
2023-03-29T01:57:32.830Z,4.90
2023-03-29T01:58:32.837Z,5.10
2023-03-29T01:59:32.810Z,5.00
2023-03-29T02:00:32.795Z,5.30
2023-03-29T02:01:32.823Z,5.80
2023-03-29T02:02:32.822Z,5.50
2023-03-29T02:03:32.945Z,5.30
2023-03-29T02:04:32.770Z,5.20
2023-03-29T02:05:32.746Z,5.10
2023-03-29T02:06:32.744Z,5.20
2023-03-29T02:07:32.734Z,5.70
2023-03-29T02:08:32.713Z,5.40
2023-03-29T02:09:32.721Z,5.20
2023-03-29T02:10:32.687Z,5.00
2023-03-29T02:11:32.678Z,4.90
2023-03-29T02:12:32.668Z,5.60
2023-03-29T02:13:32.670Z,5.20
2023-03-29T02:14:32.659Z,5.50
2023-03-29T02:15:32.705Z,5.60
2023-03-29T02:16:32.619Z,5.80
2023-03-29T02:17:32.629Z,5.80
2023-03-29T02:18:32.596Z,5.40
2023-03-29T02:19:32.626Z,5.40
2023-03-29T02:20:32.570Z,5.80
2023-03-29T02:21:32.598Z,5.00
2023-03-29T02:22:32.546Z,5.20
2023-03-29T02:23:32.544Z,5.20
2023-03-29T02:24:32.563Z,5.30
2023-03-29T02:25:32.593Z,5.30
2023-03-29T02:26:32.513Z,5.40
2023-03-29T02:27:32.494Z,5.10
2023-03-29T02:28:32.481Z,5.30
2023-03-29T02:29:32.575Z,5.60
2023-03-29T02:30:32.461Z,5.10
2023-03-29T02:31:32.515Z,5.30
2023-03-29T02:32:32.464Z,5.90
2023-03-29T02:33:32.425Z,5.40
2023-03-29T02:34:32.438Z,5.10
2023-03-29T02:35:32.412Z,5.70
2023-03-29T02:36:32.389Z,5.10
2023-03-29T02:37:32.414Z,5.80
2023-03-29T02:38:32.397Z,5.30
2023-03-29T02:39:32.413Z,5.50
2023-03-29T02:40:32.354Z,5.40
2023-03-29T02:41:32.345Z,6.10
2023-03-29T02:42:32.320Z,6.00
2023-03-29T02:43:32.355Z,5.20
2023-03-29T02:44:32.323Z,6.00
2023-03-29T02:45:32.302Z,5.70
2023-03-29T02:46:32.354Z,5.60
2023-03-29T02:47:32.323Z,5.30
2023-03-29T02:48:32.299Z,5.90
2023-03-29T02:49:32.269Z,5.50
2023-03-29T02:50:32.262Z,5.40
2023-03-29T02:51:32.232Z,5.40
2023-03-29T02:52:32.210Z,5.60
2023-03-29T02:53:32.209Z,5.60
2023-03-29T02:54:32.210Z,6.10
2023-03-29T02:55:32.184Z,5.50
2023-03-29T02:56:32.174Z,5.40
2023-03-29T02:57:32.161Z,5.90
2023-03-29T02:58:32.156Z,6.00
2023-03-29T02:59:32.164Z,5.80
2023-03-29T03:00:32.123Z,5.50
2023-03-29T03:01:32.136Z,5.60
2023-03-29T03:02:32.148Z,6.20
2023-03-29T03:03:32.211Z,5.80
2023-03-29T03:04:32.093Z,5.60
2023-03-29T03:05:32.106Z,6.10
2023-03-29T03:06:32.051Z,5.90
2023-03-29T03:07:32.047Z,6.10
2023-03-29T03:08:32.059Z,6.00
2023-03-29T03:09:32.059Z,6.10
2023-03-29T03:10:32.008Z,5.90
2023-03-29T03:11:32.007Z,5.90
2023-03-29T03:12:31.993Z,5.90
2023-03-29T03:13:31.990Z,6.10
2023-03-29T03:14:31.985Z,6.00
2023-03-29T03:15:31.961Z,6.10
2023-03-29T03:16:31.998Z,6.30
2023-03-29T03:17:31.950Z,5.70
2023-03-29T03:18:31.925Z,5.80
2023-03-29T03:19:31.932Z,6.10
2023-03-29T03:20:31.905Z,5.50
2023-03-29T03:21:31.895Z,6.40
2023-03-29T03:22:31.873Z,6.10
2023-03-29T03:23:31.866Z,5.80
2023-03-29T03:24:31.875Z,5.70
2023-03-29T03:25:31.839Z,6.30
2023-03-29T03:26:31.825Z,5.70
2023-03-29T03:27:31.824Z,6.00
2023-03-29T03:28:31.803Z,5.30
2023-03-29T03:29:31.811Z,5.60
2023-03-29T03:30:31.786Z,5.80
2023-03-29T03:31:31.803Z,5.50
2023-03-29T03:32:31.796Z,5.80
2023-03-29T03:33:31.745Z,5.60
2023-03-29T03:34:31.765Z,6.10
2023-03-29T03:35:31.767Z,6.00
2023-03-29T03:36:31.710Z,5.50
2023-03-29T03:37:31.728Z,6.00
2023-03-29T03:38:31.691Z,5.90
2023-03-29T03:39:31.700Z,6.00
2023-03-29T03:40:31.673Z,6.20
2023-03-29T03:41:31.651Z,6.00
2023-03-29T03:42:31.649Z,6.00
2023-03-29T03:43:31.654Z,5.50
2023-03-29T03:44:31.634Z,6.50
2023-03-29T03:45:31.701Z,5.70
2023-03-29T03:46:31.601Z,6.50
2023-03-29T03:47:31.669Z,5.60
2023-03-29T03:48:31.584Z,6.00
2023-03-29T03:49:31.675Z,6.00
2023-03-29T03:50:31.562Z,6.90
2023-03-29T03:51:31.549Z,6.40
2023-03-29T03:52:31.526Z,5.70
2023-03-29T03:53:31.525Z,6.30
2023-03-29T03:54:31.557Z,6.10
2023-03-29T03:55:31.499Z,6.20
2023-03-29T03:56:31.533Z,5.70
2023-03-29T03:57:31.481Z,6.10
2023-03-29T03:58:31.461Z,6.90
2023-03-29T03:59:31.476Z,6.20
2023-03-29T04:00:31.439Z,6.10
2023-03-29T04:01:31.450Z,6.50
2023-03-29T04:02:31.440Z,7.00
2023-03-29T04:03:31.446Z,5.80
2023-03-29T04:04:31.530Z,6.00
2023-03-29T04:05:31.386Z,5.90
2023-03-29T04:06:31.466Z,5.90
2023-03-29T04:07:31.364Z,6.00
2023-03-29T04:08:31.346Z,6.20
2023-03-29T04:09:31.368Z,6.00
2023-03-29T04:10:31.320Z,6.00
2023-03-29T04:11:31.312Z,6.50
2023-03-29T04:12:31.317Z,6.60
2023-03-29T04:13:31.290Z,6.20
2023-03-29T04:14:31.294Z,6.10
2023-03-29T04:15:31.358Z,6.50
2023-03-29T04:16:31.271Z,5.90
2023-03-29T04:17:31.299Z,6.20
2023-03-29T04:18:31.325Z,6.00
2023-03-29T04:19:31.262Z,6.10
2023-03-29T04:20:31.209Z,5.90
2023-03-29T04:21:31.201Z,6.10
2023-03-29T04:22:31.189Z,6.10
2023-03-29T04:23:31.207Z,6.00
2023-03-29T04:24:31.178Z,6.50
2023-03-29T04:25:31.164Z,6.10
2023-03-29T04:26:31.135Z,5.80
2023-03-29T04:27:31.162Z,5.90
2023-03-29T04:28:31.132Z,6.00
2023-03-29T04:29:31.134Z,6.00
2023-03-29T04:30:31.110Z,6.30
2023-03-29T04:31:31.219Z,6.00
2023-03-29T04:32:31.110Z,5.80
2023-03-29T04:33:31.076Z,6.00
2023-03-29T04:34:31.079Z,5.90
2023-03-29T04:35:31.075Z,5.90
2023-03-29T04:36:31.030Z,5.80
2023-03-29T04:37:31.029Z,5.50
2023-03-29T04:38:31.012Z,6.10
2023-03-29T04:39:31.023Z,5.90
2023-03-29T04:40:31.002Z,6.10
2023-03-29T04:41:30.976Z,6.00
2023-03-29T04:42:30.969Z,5.80
2023-03-29T04:43:30.967Z,6.00
2023-03-29T04:44:30.959Z,6.20
2023-03-29T04:45:30.944Z,5.70
2023-03-29T04:46:30.947Z,6.00
2023-03-29T04:47:30.910Z,5.50
2023-03-29T04:48:30.896Z,5.70
2023-03-29T04:49:30.909Z,5.70
2023-03-29T04:50:30.897Z,6.10
2023-03-29T04:51:30.888Z,6.10
2023-03-29T04:52:30.849Z,5.90
2023-03-29T04:53:30.849Z,6.10
2023-03-29T04:54:30.864Z,5.80
2023-03-29T04:55:30.861Z,5.90
2023-03-29T04:56:30.813Z,5.60
2023-03-29T04:57:30.809Z,6.10
2023-03-29T04:58:32.509Z,5.60
2023-03-29T04:59:30.794Z,5.90
2023-03-29T05:00:30.771Z,5.80
2023-03-29T05:01:30.797Z,5.70
2023-03-29T05:02:30.752Z,5.40
2023-03-29T05:03:30.728Z,5.60
2023-03-29T05:04:30.782Z,5.60
2023-03-29T05:05:30.713Z,5.50
2023-03-29T05:06:30.694Z,5.10
2023-03-29T05:07:30.693Z,5.20
2023-03-29T05:08:30.696Z,5.60
2023-03-29T05:09:31.675Z,5.30
2023-03-29T05:10:30.642Z,5.60
2023-03-29T05:11:30.645Z,5.40
2023-03-29T05:12:30.625Z,5.70
2023-03-29T05:13:30.614Z,5.40
2023-03-29T05:14:30.645Z,5.20
2023-03-29T05:15:30.597Z,5.50
2023-03-29T05:16:30.669Z,5.90
2023-03-29T05:17:30.579Z,5.70
2023-03-29T05:18:30.576Z,5.80
2023-03-29T05:19:30.565Z,6.00
2023-03-29T05:20:30.536Z,6.10
2023-03-29T05:21:30.551Z,6.20
2023-03-29T05:22:30.519Z,6.70
2023-03-29T05:23:30.500Z,6.30
2023-03-29T05:24:30.511Z,6.90
2023-03-29T05:25:30.478Z,6.90
2023-03-29T05:26:30.470Z,7.00
2023-03-29T05:27:30.458Z,6.90
2023-03-29T05:28:30.454Z,7.40
2023-03-29T05:29:30.463Z,7.30
2023-03-29T05:30:30.426Z,7.00
2023-03-29T05:31:30.455Z,7.80
2023-03-29T05:32:30.469Z,7.80
2023-03-29T05:33:30.401Z,8.90
2023-03-29T05:34:30.405Z,7.30
2023-03-29T05:35:30.452Z,8.20
2023-03-29T05:36:30.361Z,7.30
2023-03-29T05:37:30.352Z,8.40
2023-03-29T05:38:30.347Z,8.90
2023-03-29T05:39:30.348Z,8.70
2023-03-29T05:40:30.308Z,9.00
2023-03-29T05:41:30.308Z,8.30
2023-03-29T05:42:30.306Z,8.70
2023-03-29T05:43:30.290Z,8.40
2023-03-29T05:44:30.284Z,9.50
2023-03-29T05:45:30.286Z,9.00
2023-03-29T05:46:30.247Z,9.40
2023-03-29T05:47:30.233Z,9.70
2023-03-29T05:48:30.222Z,10.50
2023-03-29T05:49:30.228Z,10.20
2023-03-29T05:50:30.210Z,10.80
2023-03-29T05:51:30.176Z,10.10
2023-03-29T05:52:30.177Z,11.40
2023-03-29T05:53:30.160Z,10.90
2023-03-29T05:54:30.168Z,10.20
2023-03-29T05:55:30.405Z,11.30
2023-03-29T05:56:30.136Z,11.40
2023-03-29T05:57:30.159Z,11.30
2023-03-29T05:58:30.115Z,12.50
2023-03-29T05:59:30.110Z,12.30
2023-03-29T06:00:30.256Z,11.80
2023-03-29T06:01:30.065Z,12.20
2023-03-29T06:02:30.090Z,11.40
2023-03-29T06:03:30.262Z,11.40
2023-03-29T06:04:30.151Z,11.00
2023-03-29T06:05:30.024Z,11.30
2023-03-29T06:06:30.014Z,11.90
2023-03-29T06:07:30.011Z,11.60
2023-03-29T06:08:30.011Z,11.60
2023-03-29T06:09:30.005Z,11.50
2023-03-29T06:10:29.976Z,12.00
2023-03-29T06:11:29.958Z,11.40
2023-03-29T06:12:29.949Z,11.20
2023-03-29T06:13:29.939Z,11.40
2023-03-29T06:14:29.950Z,11.50
2023-03-29T06:15:29.919Z,10.70
2023-03-29T06:16:29.944Z,10.40
2023-03-29T06:17:29.909Z,11.30
2023-03-29T06:18:29.890Z,11.20
2023-03-29T06:19:29.882Z,10.50
2023-03-29T06:20:29.859Z,11.30
2023-03-29T06:21:29.869Z,11.50
2023-03-29T06:22:29.838Z,10.50
2023-03-29T06:23:29.858Z,11.90
2023-03-29T06:24:29.847Z,11.40
2023-03-29T06:25:29.800Z,10.20
2023-03-29T06:26:29.793Z,11.20
2023-03-29T06:27:29.783Z,11.10
2023-03-29T06:28:29.770Z,10.90
2023-03-29T06:29:29.784Z,11.00
2023-03-29T06:30:29.749Z,11.30
2023-03-29T06:31:29.780Z,10.60
2023-03-29T06:32:29.750Z,11.30
2023-03-29T06:33:29.713Z,10.60
2023-03-29T06:34:29.734Z,10.40
2023-03-29T06:35:29.821Z,10.10
2023-03-29T06:36:29.719Z,9.60
2023-03-29T06:37:29.667Z,9.90
2023-03-29T06:38:29.666Z,9.70
2023-03-29T06:39:29.659Z,9.60
2023-03-29T06:40:29.638Z,9.70
2023-03-29T06:41:29.620Z,9.00
2023-03-29T06:42:29.626Z,9.90
2023-03-29T06:43:29.610Z,9.70
2023-03-29T06:44:29.609Z,9.10
2023-03-29T06:45:29.680Z,9.30
2023-03-29T06:46:29.598Z,8.90
2023-03-29T06:47:29.601Z,8.80
2023-03-29T06:48:29.549Z,9.40
2023-03-29T06:49:29.581Z,9.50
2023-03-29T06:50:29.522Z,9.20
2023-03-29T06:51:29.514Z,8.50
2023-03-29T06:52:29.739Z,8.30
2023-03-29T06:53:29.489Z,9.20
2023-03-29T06:54:29.515Z,8.70
2023-03-29T06:55:29.483Z,8.80
2023-03-29T06:56:29.462Z,8.50
2023-03-29T06:57:29.501Z,8.50
2023-03-29T06:58:29.441Z,8.60
2023-03-29T06:59:29.441Z,9.00
2023-03-29T07:00:29.412Z,8.80
2023-03-29T07:01:29.431Z,8.60
2023-03-29T07:02:29.405Z,9.10
2023-03-29T07:03:29.379Z,8.30
2023-03-29T07:04:29.427Z,8.70
2023-03-29T07:05:29.348Z,8.90
2023-03-29T07:06:29.348Z,9.10
2023-03-29T07:07:29.334Z,8.70
2023-03-29T07:08:29.355Z,8.80
2023-03-29T07:09:29.324Z,9.90
2023-03-29T07:10:29.299Z,9.30
2023-03-29T07:11:29.281Z,9.20
2023-03-29T07:12:29.350Z,8.70
2023-03-29T07:13:29.266Z,8.80
2023-03-29T07:14:29.276Z,8.50
2023-03-29T07:15:29.239Z,9.20
2023-03-29T07:16:29.288Z,9.10
2023-03-29T07:17:29.243Z,8.80
2023-03-29T07:18:29.209Z,8.90
2023-03-29T07:19:29.259Z,9.30
2023-03-29T07:20:29.196Z,9.10
2023-03-29T07:21:29.172Z,9.30
2023-03-29T07:22:29.175Z,8.40
2023-03-29T07:23:29.146Z,8.90
2023-03-29T07:24:29.162Z,8.80
2023-03-29T07:25:29.134Z,8.90
2023-03-29T07:26:30.220Z,8.50
2023-03-29T07:27:29.098Z,8.80
2023-03-29T07:28:29.107Z,8.80
2023-03-29T07:29:29.098Z,9.10
2023-03-29T07:30:31.452Z,8.90
2023-03-29T07:31:29.058Z,8.60
2023-03-29T07:32:29.097Z,8.90
2023-03-29T07:33:29.086Z,9.40
2023-03-29T07:34:29.045Z,9.20
2023-03-29T07:35:29.057Z,8.90
2023-03-29T07:36:29.014Z,8.70
2023-03-29T07:37:28.989Z,9.20
2023-03-29T07:38:28.990Z,9.00
2023-03-29T07:39:28.982Z,8.80
2023-03-29T07:40:28.964Z,9.80
2023-03-29T07:41:28.941Z,8.70
2023-03-29T07:42:28.934Z,8.80
2023-03-29T07:43:28.925Z,8.60
2023-03-29T07:44:28.961Z,9.20
2023-03-29T07:45:29.077Z,8.60
2023-03-29T07:46:28.918Z,8.80
2023-03-29T07:47:28.891Z,9.20
2023-03-29T07:48:28.872Z,9.00
2023-03-29T07:49:28.869Z,9.40
2023-03-29T07:50:28.849Z,9.00
2023-03-29T07:51:28.825Z,8.60
2023-03-29T07:52:28.814Z,8.90
2023-03-29T07:53:28.800Z,8.60
2023-03-29T07:54:28.810Z,9.00
2023-03-29T07:55:28.785Z,8.70
2023-03-29T07:56:28.772Z,8.50
2023-03-29T07:57:28.853Z,8.70
2023-03-29T07:58:28.746Z,9.00
2023-03-29T07:59:28.769Z,8.30
2023-03-29T08:00:28.778Z,8.40
2023-03-29T08:01:28.771Z,8.00
2023-03-29T08:02:28.719Z,8.50
2023-03-29T08:03:28.737Z,8.20
2023-03-29T08:04:28.752Z,8.70
2023-03-29T08:05:40.097Z,8.80
2023-03-29T08:06:28.659Z,8.20
2023-03-29T08:07:28.640Z,8.20
2023-03-29T08:08:28.640Z,8.50
2023-03-29T08:09:28.645Z,8.30
2023-03-29T08:10:28.629Z,8.80
2023-03-29T08:11:28.590Z,8.50
2023-03-29T08:12:28.592Z,9.00
2023-03-29T08:13:28.583Z,7.70
2023-03-29T08:14:28.593Z,8.00
2023-03-29T08:15:28.566Z,7.60
2023-03-29T08:16:28.578Z,7.90
2023-03-29T08:17:28.570Z,7.20
2023-03-29T08:18:28.540Z,7.60
2023-03-29T08:19:28.523Z,7.60
2023-03-29T08:20:28.505Z,7.20
2023-03-29T08:21:28.486Z,7.70
2023-03-29T08:22:28.489Z,7.50
2023-03-29T08:23:28.468Z,7.20
2023-03-29T08:24:28.545Z,7.00
2023-03-29T08:25:28.439Z,7.00
2023-03-29T08:26:28.435Z,7.50
2023-03-29T08:27:28.430Z,7.00
2023-03-29T08:28:28.422Z,6.90
2023-03-29T08:29:28.415Z,7.50
2023-03-29T08:30:28.391Z,7.00
2023-03-29T08:31:28.456Z,6.80
2023-03-29T08:32:28.381Z,6.70
2023-03-29T08:33:28.358Z,7.10
2023-03-29T08:34:28.361Z,7.30
2023-03-29T08:35:28.325Z,7.90
2023-03-29T08:36:28.324Z,7.10
2023-03-29T08:37:28.307Z,7.30
2023-03-29T08:38:28.299Z,7.10
2023-03-29T08:39:28.318Z,6.80
2023-03-29T08:40:28.272Z,6.80
2023-03-29T08:41:28.260Z,6.60
2023-03-29T08:42:28.250Z,6.90
2023-03-29T08:43:28.238Z,6.80
2023-03-29T08:44:28.248Z,7.00
2023-03-29T08:45:28.214Z,6.80
2023-03-29T08:46:34.418Z,6.20
2023-03-29T08:47:28.211Z,6.50
2023-03-29T08:48:28.200Z,6.80
2023-03-29T08:49:28.189Z,6.40
2023-03-29T08:50:28.163Z,6.90
2023-03-29T08:51:28.148Z,6.70
2023-03-29T08:52:28.150Z,7.30
2023-03-29T08:53:28.128Z,6.40
2023-03-29T08:54:28.137Z,7.00
2023-03-29T08:55:28.126Z,7.30
2023-03-29T08:56:28.092Z,6.40
2023-03-29T08:57:28.163Z,6.20
2023-03-29T08:58:28.072Z,7.00
2023-03-29T08:59:28.054Z,6.60
2023-03-29T09:00:28.066Z,6.40
2023-03-29T09:01:28.056Z,6.60
2023-03-29T09:02:28.211Z,6.50
2023-03-29T09:03:28.131Z,6.20
2023-03-29T09:04:28.001Z,6.50
2023-03-29T09:05:28.009Z,6.30
2023-03-29T09:06:27.982Z,6.90
2023-03-29T09:07:27.960Z,6.50
2023-03-29T09:08:27.953Z,6.80
2023-03-29T09:09:27.938Z,6.60
2023-03-29T09:10:27.952Z,6.50
2023-03-29T09:11:27.929Z,7.20
2023-03-29T09:12:27.916Z,6.90
2023-03-29T09:13:27.945Z,6.70
2023-03-29T09:14:27.888Z,6.70
2023-03-29T09:15:27.892Z,6.50
2023-03-29T09:16:27.882Z,6.60
2023-03-29T09:17:27.878Z,6.50
2023-03-29T09:18:27.861Z,6.50
2023-03-29T09:19:27.822Z,6.70
2023-03-29T09:20:27.850Z,6.60
2023-03-29T09:21:27.800Z,6.70
2023-03-29T09:22:27.793Z,6.70
2023-03-29T09:23:27.786Z,6.40
2023-03-29T09:24:27.777Z,6.60
2023-03-29T09:25:27.789Z,6.90
2023-03-29T09:26:27.750Z,6.70
2023-03-29T09:27:27.739Z,6.70
2023-03-29T09:28:27.731Z,6.10
2023-03-29T09:29:27.716Z,6.70
2023-03-29T09:30:27.718Z,6.50
2023-03-29T09:31:27.726Z,6.60
2023-03-29T09:32:27.701Z,6.80
2023-03-29T09:33:27.669Z,6.70
2023-03-29T09:34:27.652Z,6.40
2023-03-29T09:35:27.741Z,6.50
2023-03-29T09:36:27.631Z,6.50
2023-03-29T09:37:27.624Z,6.60
2023-03-29T09:38:27.608Z,6.70
2023-03-29T09:39:27.610Z,6.50
2023-03-29T09:40:27.609Z,6.80
2023-03-29T09:41:27.588Z,6.80
2023-03-29T09:42:27.563Z,6.50
2023-03-29T09:43:27.559Z,7.10
2023-03-29T09:44:31.287Z,7.10
2023-03-29T09:45:27.583Z,7.10
2023-03-29T09:46:27.515Z,7.00
2023-03-29T09:47:27.531Z,6.90
2023-03-29T09:48:27.494Z,7.00
2023-03-29T09:49:27.502Z,7.70
2023-03-29T09:50:31.680Z,7.20
2023-03-29T09:51:27.464Z,7.70
2023-03-29T09:52:27.454Z,8.00
2023-03-29T09:53:27.444Z,7.60
2023-03-29T09:54:27.430Z,7.90
2023-03-29T09:55:27.445Z,8.40
2023-03-29T09:56:27.405Z,7.90
2023-03-29T09:57:27.472Z,9.00
2023-03-29T09:58:27.414Z,8.30
2023-03-29T09:59:27.373Z,8.30
2023-03-29T10:00:27.381Z,8.10
2023-03-29T10:01:27.473Z,8.30
2023-03-29T10:02:27.386Z,8.70
2023-03-29T10:03:27.358Z,8.20
2023-03-29T10:04:27.356Z,8.60
2023-03-29T10:05:27.340Z,8.30
2023-03-29T10:06:27.300Z,8.90
2023-03-29T10:07:27.304Z,8.50
2023-03-29T10:08:27.300Z,8.70
2023-03-29T10:09:27.288Z,8.50
2023-03-29T10:10:27.280Z,8.20
2023-03-29T10:11:27.249Z,8.80
2023-03-29T10:12:27.225Z,9.40
2023-03-29T10:13:27.226Z,8.80
2023-03-29T10:14:27.209Z,8.90
2023-03-29T10:15:30.012Z,9.30
2023-03-29T10:16:27.218Z,9.10
2023-03-29T10:17:27.214Z,8.80
2023-03-29T10:18:27.158Z,9.10
2023-03-29T10:19:27.149Z,8.80
2023-03-29T10:20:27.171Z,8.80
2023-03-29T10:21:27.135Z,9.00
2023-03-29T10:22:27.117Z,8.70
2023-03-29T10:23:27.108Z,9.40
2023-03-29T10:24:27.093Z,8.80
2023-03-29T10:25:27.113Z,8.80
2023-03-29T10:26:27.074Z,8.70
2023-03-29T10:27:27.090Z,8.60
2023-03-29T10:28:27.057Z,9.20
2023-03-29T10:29:27.037Z,8.70
2023-03-29T10:30:27.066Z,8.90
2023-03-29T10:31:27.059Z,9.10
2023-03-29T10:32:27.063Z,8.40
2023-03-29T10:33:27.046Z,9.30
2023-03-29T10:34:26.985Z,9.10
2023-03-29T10:35:27.007Z,9.70
2023-03-29T10:36:26.963Z,9.60
2023-03-29T10:37:26.953Z,9.70
2023-03-29T10:38:26.935Z,9.30
2023-03-29T10:39:26.937Z,9.40
2023-03-29T10:40:26.932Z,9.40
2023-03-29T10:41:26.902Z,10.00
2023-03-29T10:42:26.892Z,10.00
2023-03-29T10:43:26.901Z,10.40
2023-03-29T10:44:26.867Z,10.40
2023-03-29T10:45:26.879Z,10.90
2023-03-29T10:46:26.847Z,9.30
2023-03-29T10:47:26.880Z,10.00
2023-03-29T10:48:26.815Z,11.60
2023-03-29T10:49:26.811Z,11.20
2023-03-29T10:50:26.820Z,10.60
2023-03-29T10:51:26.795Z,12.50
2023-03-29T10:52:26.773Z,12.90
2023-03-29T10:53:26.765Z,12.60
2023-03-29T10:54:26.751Z,13.00
2023-03-29T10:55:26.762Z,13.40
2023-03-29T10:56:26.729Z,13.50
2023-03-29T10:57:26.761Z,11.90
2023-03-29T10:58:26.708Z,11.80
2023-03-29T10:59:26.808Z,12.10
2023-03-29T11:00:26.700Z,11.60
2023-03-29T11:01:26.722Z,12.90
2023-03-29T11:02:26.735Z,11.60
2023-03-29T11:03:26.689Z,12.90
2023-03-29T11:04:26.653Z,12.00
2023-03-29T11:05:26.670Z,11.70
2023-03-29T11:06:26.614Z,11.30
2023-03-29T11:07:26.610Z,11.80
2023-03-29T11:08:27.268Z,11.30
2023-03-29T11:09:26.616Z,12.20
2023-03-29T11:10:26.620Z,11.30
2023-03-29T11:11:26.579Z,12.60
2023-03-29T11:12:26.539Z,12.00
2023-03-29T11:13:26.543Z,12.60
2023-03-29T11:14:26.530Z,12.80
2023-03-29T11:15:26.540Z,12.70
2023-03-29T11:16:26.537Z,13.10
2023-03-29T11:17:26.533Z,12.50
2023-03-29T11:18:26.478Z,13.80
2023-03-29T11:19:26.464Z,13.00
2023-03-29T11:20:26.469Z,14.00
2023-03-29T11:21:26.444Z,14.20
2023-03-29T11:22:26.442Z,14.30
2023-03-29T11:23:26.429Z,13.50
2023-03-29T11:24:26.452Z,14.20
2023-03-29T11:25:29.128Z,13.80
2023-03-29T11:26:26.382Z,14.40
2023-03-29T11:27:26.372Z,14.90
2023-03-29T11:28:26.356Z,13.60
2023-03-29T11:29:26.358Z,14.70
2023-03-29T11:30:26.372Z,14.80
2023-03-29T11:31:26.376Z,14.20
2023-03-29T11:32:26.336Z,15.20
2023-03-29T11:33:26.320Z,15.00
2023-03-29T11:34:26.296Z,15.40
2023-03-29T11:35:26.308Z,15.40
2023-03-29T11:36:26.269Z,14.50
2023-03-29T11:37:26.267Z,15.20
2023-03-29T11:38:26.242Z,15.60
2023-03-29T11:39:26.253Z,14.80
2023-03-29T11:40:26.240Z,15.90
2023-03-29T11:41:26.227Z,15.00
2023-03-29T11:42:26.200Z,15.50
2023-03-29T11:43:26.190Z,14.90
2023-03-29T11:44:26.191Z,14.60
2023-03-29T11:45:26.199Z,15.20
2023-03-29T11:46:26.191Z,14.90
2023-03-29T11:47:26.167Z,15.90
2023-03-29T11:48:26.138Z,15.90
2023-03-29T11:49:26.129Z,16.30
2023-03-29T11:50:26.151Z,15.60
2023-03-29T11:51:26.098Z,15.60
2023-03-29T11:52:26.125Z,15.60
2023-03-29T11:53:26.081Z,15.20
2023-03-29T11:54:26.076Z,14.40
2023-03-29T11:55:26.114Z,14.80
2023-03-29T11:56:26.033Z,15.50
2023-03-29T11:57:26.113Z,15.90
2023-03-29T11:58:26.012Z,15.30
2023-03-29T11:59:26.009Z,14.80
2023-03-29T12:00:26.008Z,14.60
2023-03-29T12:01:25.982Z,14.80
2023-03-29T12:02:26.025Z,14.30
2023-03-29T12:03:26.072Z,14.60
2023-03-29T12:04:26.048Z,14.20
2023-03-29T12:05:25.954Z,14.00
2023-03-29T12:06:25.929Z,14.10
2023-03-29T12:07:25.924Z,14.50
2023-03-29T12:08:25.927Z,14.40
2023-03-29T12:09:25.909Z,14.10
2023-03-29T12:10:25.898Z,14.30
2023-03-29T12:11:25.882Z,14.30
2023-03-29T12:12:25.867Z,14.20
2023-03-29T12:13:25.846Z,14.60
2023-03-29T12:14:27.904Z,14.20
2023-03-29T12:15:25.856Z,14.20
2023-03-29T12:16:25.866Z,14.30
2023-03-29T12:17:25.819Z,14.40
2023-03-29T12:18:25.789Z,13.90
2023-03-29T12:19:25.789Z,13.10
2023-03-29T12:20:25.786Z,13.10
2023-03-29T12:21:25.757Z,13.00
2023-03-29T12:22:25.749Z,12.50
2023-03-29T12:23:25.747Z,12.60
2023-03-29T12:24:25.724Z,12.50
2023-03-29T12:25:25.723Z,12.50
2023-03-29T12:26:25.697Z,12.60
2023-03-29T12:27:25.688Z,12.30
2023-03-29T12:28:25.683Z,12.90
2023-03-29T12:29:25.668Z,11.80
2023-03-29T12:30:25.669Z,12.10
2023-03-29T12:31:25.667Z,11.80
2023-03-29T12:32:25.658Z,11.40
2023-03-29T12:33:25.622Z,11.50
2023-03-29T12:34:25.619Z,11.30
2023-03-29T12:35:25.609Z,11.20
2023-03-29T12:36:25.584Z,11.90
2023-03-29T12:37:25.582Z,12.20
2023-03-29T12:38:25.824Z,11.10
2023-03-29T12:39:25.549Z,11.00
2023-03-29T12:40:25.566Z,11.10
2023-03-29T12:41:25.541Z,12.10
2023-03-29T12:42:25.523Z,10.80
2023-03-29T12:43:25.507Z,11.40
2023-03-29T12:44:25.501Z,10.70
2023-03-29T12:45:25.511Z,11.40
2023-03-29T12:46:25.585Z,11.40
2023-03-29T12:47:25.459Z,11.80
2023-03-29T12:48:25.447Z,11.90
2023-03-29T12:49:25.440Z,11.60
2023-03-29T12:50:25.455Z,11.50
2023-03-29T12:51:25.420Z,11.60
2023-03-29T12:52:25.410Z,12.00
2023-03-29T12:53:25.397Z,12.80
2023-03-29T12:54:27.907Z,12.00
2023-03-29T12:55:25.407Z,12.60
2023-03-29T12:56:25.357Z,13.70
2023-03-29T12:57:25.490Z,12.50
2023-03-29T12:58:25.336Z,12.70
2023-03-29T12:59:25.332Z,11.90
2023-03-29T13:00:25.327Z,12.20
2023-03-29T13:01:25.372Z,12.00
2023-03-29T13:02:25.390Z,11.10
2023-03-29T13:03:25.299Z,11.00
2023-03-29T13:04:25.270Z,12.10
2023-03-29T13:05:25.314Z,11.90
2023-03-29T13:06:25.242Z,11.30
2023-03-29T13:07:25.232Z,12.10
2023-03-29T13:08:25.223Z,11.60
2023-03-29T13:09:25.211Z,10.60
2023-03-29T13:10:25.221Z,10.90
2023-03-29T13:11:25.187Z,10.40